Time;durP1;ratioP1;P1;durP2;ratioP2;P2;SDS_P1;SDS_P2;PMS_P1;PMS_P2;Temp;Humidity;BMP_temperature;BMP_pressure;BME280_temperature;BME280_humidity;BME280_pressure;Samples;Min_cycle;Max_cycle;Signal;HPM_P1;HPM_P2
2021/11/15 00:01:43;;;;;;;15.45;11.27;;;;;;;9.00;nan;101197.75;4990364;28;20494;-76
2021/11/15 00:04:09;;;;;;;16.67;11.07;;;;;;;9.05;nan;101201.69;4988897;28;20093;-76
2021/11/15 00:06:34;;;;;;;18.70;11.57;;;;;;;9.14;nan;101200.13;4989072;28;20496;-77
2021/11/15 00:08:59;;;;;;;16.75;11.63;;;;;;;9.05;nan;101196.41;4994073;28;20118;-77
2021/11/15 00:11:26;;;;;;;17.50;11.27;;;;;;;9.05;nan;101198.22;4991763;28;20030;-76
2021/11/15 00:13:52;;;;;;;15.63;10.73;;;;;;;9.02;nan;101196.69;4994596;28;20038;-76
2021/11/15 00:16:17;;;;;;;17.10;11.63;;;;;;;9.00;nan;101193.31;4997454;28;20038;-76
2021/11/15 00:18:42;;;;;;;15.57;11.25;;;;;;;9.03;nan;101195.69;4994066;28;20034;-76
2021/11/15 00:21:08;;;;;;;16.13;10.55;;;;;;;9.01;nan;101200.28;4993183;28;20034;-76
2021/11/15 00:23:33;;;;;;;13.73;9.30;;;;;;;9.03;nan;101203.63;4993674;28;20041;-77
2021/11/15 00:25:58;;;;;;;14.93;10.38;;;;;;;8.99;nan;101191.66;4992782;28;20030;-77
2021/11/15 00:28:24;;;;;;;14.70;10.20;;;;;;;8.95;nan;101186.75;4993222;28;20526;-76
2021/11/15 00:30:49;;;;;;;17.08;11.07;;;;;;;9.05;nan;101193.78;4992462;28;20101;-76
2021/11/15 00:33:14;;;;;;;18.30;12.73;;;;;;;9.10;nan;101191.59;4993609;28;20038;-76
2021/11/15 00:35:40;;;;;;;18.90;11.93;;;;;;;9.08;nan;101193.56;4991750;28;20031;-76
2021/11/15 00:38:05;;;;;;;16.02;11.18;;;;;;;9.00;nan;101181.94;4992903;28;20030;-76
2021/11/15 00:40:31;;;;;;;18.35;11.57;;;;;;;9.11;nan;101195.94;4992300;28;20416;-76
2021/11/15 00:42:56;;;;;;;18.42;12.15;;;;;;;9.04;nan;101196.56;4993524;28;20042;-76
2021/11/15 00:45:22;;;;;;;17.63;12.07;;;;;;;9.01;nan;101191.50;4992605;28;20085;-76
2021/11/15 00:47:47;;;;;;;18.00;12.13;;;;;;;8.97;nan;101188.31;4992277;28;20034;-76
2021/11/15 00:50:20;;;;;;;17.95;11.93;;;;;;;9.01;nan;101194.16;4996251;28;20031;-77
2021/11/15 00:52:47;;;;;;;17.95;12.23;;;;;;;9.01;nan;101194.16;4991792;28;20123;-76
2021/11/15 00:55:12;;;;;;;18.05;12.32;;;;;;;8.98;nan;101187.31;4992862;28;20038;-77
2021/11/15 00:57:38;;;;;;;17.80;12.50;;;;;;;8.93;nan;101182.44;4993153;28;20380;-76
2021/11/15 01:00:07;;;;;;;19.42;13.38;;;;;;;8.99;nan;101190.81;4992197;28;20027;-76
2021/11/15 01:02:33;;;;;;;17.05;11.43;;;;;;;8.91;nan;101183.50;4992772;28;20121;-77
2021/11/15 01:04:58;;;;;;;17.58;10.68;;;;;;;8.92;nan;101183.41;4991876;28;20752;-77
2021/11/15 01:07:24;;;;;;;19.30;12.10;;;;;;;8.93;nan;101185.06;4991906;28;20042;-77
2021/11/15 01:09:49;;;;;;;19.90;13.20;;;;;;;8.91;nan;101187.00;4992562;28;20503;-76
2021/11/15 01:12:14;;;;;;;26.17;15.88;;;;;;;8.86;nan;101180.41;4991819;28;20088;-76
2021/11/15 01:14:40;;;;;;;19.92;12.77;;;;;;;8.98;nan;101182.06;4992799;28;20034;-76
2021/11/15 01:17:05;;;;;;;19.45;12.80;;;;;;;9.00;nan;101187.22;4992545;28;20491;-77
2021/11/15 01:19:30;;;;;;;17.92;11.25;;;;;;;9.05;nan;101187.66;4991238;28;20058;-77
2021/11/15 01:21:56;;;;;;;18.48;12.40;;;;;;;9.01;nan;101192.38;4991469;28;20042;-76
2021/11/15 01:24:21;;;;;;;18.30;12.23;;;;;;;8.90;nan;101185.31;4991689;28;20042;-77
2021/11/15 01:26:46;;;;;;;18.90;12.50;;;;;;;9.00;nan;101193.31;4992621;28;20044;-76
2021/11/15 01:29:12;;;;;;;17.45;11.68;;;;;;;8.90;nan;101187.13;4991977;28;20057;-76
2021/11/15 01:31:38;;;;;;;20.45;13.15;;;;;;;9.06;nan;101184.91;4992720;28;20031;-76
2021/11/15 01:34:05;;;;;;;18.60;12.00;;;;;;;9.04;nan;101192.13;4991643;28;20676;-77
2021/11/15 01:36:32;;;;;;;19.83;12.80;;;;;;;8.94;nan;101180.66;5006221;28;20085;-77
2021/11/15 01:38:57;;;;;;;16.73;11.00;;;;;;;8.94;nan;101183.28;5003207;28;20030;-77
2021/11/15 01:41:23;;;;;;;19.48;12.52;;;;;;;9.00;nan;101180.13;4992041;28;20526;-77
2021/11/15 01:43:48;;;;;;;17.80;11.80;;;;;;;8.97;nan;101177.75;4992165;28;20038;-77
2021/11/15 01:46:14;;;;;;;18.45;11.88;;;;;;;8.90;nan;101176.56;4991255;28;20451;-77
2021/11/15 01:48:39;;;;;;;19.42;13.02;;;;;;;8.86;nan;101180.41;4990601;28;20035;-77
2021/11/15 01:51:04;;;;;;;19.08;12.32;;;;;;;8.89;nan;101177.53;4999688;28;20046;-74
2021/11/15 01:53:30;;;;;;;20.45;13.50;;;;;;;8.91;nan;101184.38;4991831;28;20066;-77
2021/11/15 01:55:56;;;;;;;20.13;12.77;;;;;;;8.85;nan;101182.22;4991847;28;20038;-76
2021/11/15 01:58:21;;;;;;;21.00;14.00;;;;;;;8.87;nan;101185.59;4991076;28;20060;-77
2021/11/15 02:00:51;;;;;;;18.88;12.63;;;;;;;8.97;nan;101182.19;4992241;28;20035;-77
2021/11/15 02:03:17;;;;;;;17.08;11.93;;;;;;;8.94;nan;101191.19;4990661;28;20042;-76
2021/11/15 02:05:43;;;;;;;18.77;11.85;;;;;;;8.91;nan;101188.78;4991811;28;20046;-76
2021/11/15 02:08:10;;;;;;;19.30;12.75;;;;;;;8.85;nan;101186.66;4990854;28;20519;-77
2021/11/15 02:10:36;;;;;;;18.75;12.57;;;;;;;8.90;nan;101179.22;4991744;28;20534;-76
2021/11/15 02:13:01;;;;;;;17.48;12.30;;;;;;;8.79;nan;101181.88;4991759;28;20062;-76
2021/11/15 02:15:27;;;;;;;20.23;13.73;;;;;;;8.88;nan;101178.50;4992158;28;20444;-77
2021/11/15 02:17:52;;;;;;;22.35;13.98;;;;;;;8.93;nan;101176.31;5010294;28;20030;-76
2021/11/15 02:20:24;;;;;;;19.58;13.57;;;;;;;9.02;nan;101180.84;4986608;28;20411;-77
2021/11/15 02:22:51;;;;;;;19.15;12.57;;;;;;;8.99;nan;101188.19;4977756;28;20122;-76
2021/11/15 02:25:20;;;;;;;22.70;14.25;;;;;;;8.91;nan;101179.09;4990610;28;20689;-77
2021/11/15 02:27:47;;;;;;;24.17;14.65;;;;;;;8.86;nan;101177.78;4991253;28;20043;-76
2021/11/15 02:30:17;;;;;;;21.60;13.65;;;;;;;8.98;nan;101181.22;4990097;28;20585;-77
2021/11/15 02:32:43;;;;;;;19.33;12.32;;;;;;;8.92;nan;101180.75;4991043;28;20042;-76
2021/11/15 02:35:09;;;;;;;23.60;14.45;;;;;;;9.07;nan;101177.84;4993479;28;20395;-77
2021/11/15 02:37:35;;;;;;;19.88;12.93;;;;;;;8.91;nan;101171.19;5001320;28;20045;-76
2021/11/15 02:40:03;;;;;;;21.52;13.20;;;;;;;8.91;nan;101165.91;4991011;28;20042;-75
2021/11/15 02:42:28;;;;;;;20.40;12.85;;;;;;;8.90;nan;101174.78;4990320;28;20046;-76
2021/11/15 02:44:53;;;;;;;21.67;13.40;;;;;;;8.94;nan;101172.75;4990101;28;20038;-74
2021/11/15 02:47:19;;;;;;;19.67;13.15;;;;;;;8.83;nan;101164.84;4990455;28;20030;-77
2021/11/15 02:49:46;;;;;;;20.02;12.23;;;;;;;9.19;nan;101166.25;4990513;28;20122;-77
2021/11/15 02:52:11;;;;;;;18.08;11.60;;;;;;;8.99;nan;101173.19;4990264;28;20398;-74
2021/11/15 02:54:38;;;;;;;18.05;11.77;;;;;;;8.84;nan;101167.38;4989242;28;20089;-74
2021/11/15 02:57:04;;;;;;;21.25;12.73;;;;;;;8.87;nan;101167.13;4976205;28;20038;-74
2021/11/15 02:59:29;;;;;;;17.92;11.68;;;;;;;8.92;nan;101167.56;4990731;28;20522;-77
2021/11/15 03:01:54;;;;;;;16.10;10.98;;;;;;;8.88;nan;101168.78;4991597;28;20299;-75
2021/11/15 03:04:20;;;;;;;19.30;10.85;;;;;;;8.85;nan;101163.75;4992147;28;20034;-76
2021/11/15 03:06:45;;;;;;;19.70;11.25;;;;;;;8.85;nan;101163.75;4989242;28;20046;-77
2021/11/15 03:09:10;;;;;;;19.67;11.68;;;;;;;8.77;nan;101160.06;4990576;28;20491;-74
2021/11/15 03:11:36;;;;;;;19.23;11.77;;;;;;;8.75;nan;101162.84;4990542;28;20121;-74
2021/11/15 03:14:01;;;;;;;17.90;12.35;;;;;;;8.64;nan;101158.44;4990165;28;20061;-77
2021/11/15 03:16:28;;;;;;;20.27;12.52;;;;;;;8.68;nan;101159.84;4998140;28;20034;-76
2021/11/15 03:18:53;;;;;;;17.80;12.18;;;;;;;8.84;nan;101170.00;4990168;28;20049;-77
2021/11/15 03:21:22;;;;;;;16.67;11.50;;;;;;;8.77;nan;101160.06;4988949;28;20034;-76
2021/11/15 03:23:50;;;;;;;18.30;12.65;;;;;;;8.73;nan;101164.75;4989303;28;20041;-77
2021/11/15 03:26:16;;;;;;;22.15;13.57;;;;;;;8.62;nan;101164.78;4990234;28;20034;-77
2021/11/15 03:28:45;;;;;;;18.08;12.18;;;;;;;8.63;nan;101158.56;4990407;28;20039;-76
2021/11/15 03:31:32;;;;;;;20.35;12.98;;;;;;;8.68;nan;101157.22;4990087;28;20518;-77
2021/11/15 03:34:03;;;;;;;20.23;13.50;;;;;;;8.61;nan;101156.03;4989885;28;20129;-76
2021/11/15 03:36:29;;;;;;;20.75;12.77;;;;;;;8.73;nan;101161.28;4991986;28;20042;-76
2021/11/15 03:38:55;;;;;;;22.33;13.63;;;;;;;8.65;nan;101161.88;4990497;28;20574;-77
2021/11/15 03:41:22;;;;;;;19.27;13.40;;;;;;;8.74;nan;101171.69;4988684;28;20499;-76
2021/11/15 03:43:47;;;;;;;19.65;12.88;;;;;;;8.73;nan;101164.75;4994820;28;20113;-76
2021/11/15 03:46:15;;;;;;;20.00;12.80;;;;;;;8.76;nan;101161.88;4993768;28;20118;-76
2021/11/15 03:48:40;;;;;;;17.27;11.35;;;;;;;8.74;nan;101161.16;4993935;28;20035;-76
2021/11/15 03:51:05;;;;;;;19.75;12.65;;;;;;;8.64;nan;101157.59;4996164;28;20424;-76
2021/11/15 03:53:34;;;;;;;19.35;12.95;;;;;;;8.62;nan;101156.88;4994183;28;20034;-76
2021/11/15 03:56:00;;;;;;;20.65;12.60;;;;;;;8.56;nan;101163.50;4993729;28;20132;-76
2021/11/15 03:58:26;;;;;;;21.05;13.48;;;;;;;8.74;nan;101147.97;4993880;28;20085;-76
2021/11/15 04:00:52;;;;;;;23.58;14.43;;;;;;;8.68;nan;101145.84;4994177;28;20638;-76
2021/11/15 04:03:40;;;;;;;20.27;13.35;;;;;;;8.57;nan;101148.50;4993638;28;20060;-76
2021/11/15 04:06:11;;;;;;;17.30;12.45;;;;;;;8.57;nan;101151.13;4993214;28;20034;-77
2021/11/15 04:08:37;;;;;;;18.27;12.00;;;;;;;8.62;nan;101139.25;4993822;28;20038;-76
2021/11/15 04:11:06;;;;;;;17.73;11.93;;;;;;;8.70;nan;101147.41;4993522;28;20213;-76
2021/11/15 04:13:35;;;;;;;17.33;11.48;;;;;;;8.70;nan;101154.47;4993867;28;20132;-76
2021/11/15 04:16:04;;;;;;;17.60;11.43;;;;;;;8.69;nan;101148.34;4999270;28;20041;-76
2021/11/15 04:18:34;;;;;;;15.13;10.70;;;;;;;8.59;nan;101155.31;4994410;28;20406;-76
2021/11/15 04:21:00;;;;;;;17.48;12.02;;;;;;;8.67;nan;101146.78;4993843;28;20031;-76
2021/11/15 04:23:26;;;;;;;18.10;12.43;;;;;;;8.61;nan;101149.94;4992591;28;20046;-77
2021/11/15 04:25:52;;;;;;;19.70;13.38;;;;;;;8.54;nan;101151.41;4993209;28;20396;-76
2021/11/15 04:28:17;;;;;;;19.20;12.40;;;;;;;8.57;nan;101151.97;4992681;28;20037;-76
2021/11/15 04:30:43;;;;;;;20.13;12.80;;;;;;;8.58;nan;101156.31;4992273;28;20038;-76
2021/11/15 04:33:09;;;;;;;18.52;12.73;;;;;;;8.52;nan;101156.78;4992792;28;20030;-77
2021/11/15 04:35:35;;;;;;;18.17;12.25;;;;;;;8.57;nan;101148.50;4998495;28;20040;-76
2021/11/15 04:38:01;;;;;;;18.75;12.18;;;;;;;8.71;nan;101156.13;4992993;28;20116;-76
2021/11/15 04:40:26;;;;;;;21.05;12.35;;;;;;;8.67;nan;101150.25;4993222;28;20092;-77
2021/11/15 04:42:52;;;;;;;22.40;14.57;;;;;;;8.65;nan;101152.22;4991571;28;20049;-76
2021/11/15 04:45:18;;;;;;;19.98;12.75;;;;;;;8.62;nan;101146.34;4992717;28;20117;-76
2021/11/15 04:47:43;;;;;;;18.77;11.60;;;;;;;8.57;nan;101145.88;4992901;28;20502;-76
2021/11/15 04:50:10;;;;;;;19.58;11.73;;;;;;;8.64;nan;101150.50;4993983;28;20431;-76
2021/11/15 04:52:36;;;;;;;18.30;11.32;;;;;;;8.63;nan;101148.03;4992112;28;20278;-76
2021/11/15 04:55:03;;;;;;;16.02;10.05;;;;;;;8.68;nan;101151.13;5006815;28;20487;-76
2021/11/15 04:57:29;;;;;;;15.02;10.07;;;;;;;8.63;nan;101142.75;4993064;28;20427;-76
2021/11/15 04:59:54;;;;;;;16.88;10.77;;;;;;;8.65;nan;101144.28;4991715;28;20058;-76
2021/11/15 05:02:20;;;;;;;17.77;10.93;;;;;;;8.62;nan;101152.44;4991350;28;20048;-76
2021/11/15 05:04:45;;;;;;;16.25;9.98;;;;;;;8.59;nan;101150.06;4992963;28;20559;-77
2021/11/15 05:07:10;;;;;;;15.05;9.82;;;;;;;8.59;nan;101147.41;4993265;28;20411;-76
2021/11/15 05:09:36;;;;;;;14.52;9.50;;;;;;;8.65;nan;101157.47;4992530;28;20518;-76
2021/11/15 05:12:03;;;;;;;15.48;9.60;;;;;;;8.78;nan;101151.22;4992125;28;20390;-76
2021/11/15 05:14:28;;;;;;;18.00;10.77;;;;;;;8.65;nan;101152.22;4992479;28;20454;-76
2021/11/15 05:16:54;;;;;;;15.65;10.77;;;;;;;8.65;nan;101144.28;4996768;28;20085;-76
2021/11/15 05:19:20;;;;;;;16.02;9.73;;;;;;;8.55;nan;101150.41;4992684;28;20427;-76
2021/11/15 05:21:45;;;;;;;16.08;10.15;;;;;;;8.66;nan;101159.13;4992384;28;20042;-76
2021/11/15 05:24:10;;;;;;;14.38;9.63;;;;;;;8.56;nan;101152.13;4991131;28;20058;-76
2021/11/15 05:26:35;;;;;;;13.63;9.70;;;;;;;8.56;nan;101152.13;4992270;28;20442;-76
2021/11/15 05:29:01;;;;;;;16.00;10.10;;;;;;;8.58;nan;101158.94;4992152;28;20034;-76
2021/11/15 05:31:27;;;;;;;15.95;9.80;;;;;;;8.64;nan;101158.44;4992149;28;20142;-76
2021/11/15 05:33:53;;;;;;;13.75;9.25;;;;;;;8.54;nan;101164.56;4992367;28;20129;-76
2021/11/15 05:36:18;;;;;;;15.77;9.45;;;;;;;8.53;nan;101163.72;4992664;28;20145;-76
2021/11/15 05:38:44;;;;;;;13.98;9.32;;;;;;;8.52;nan;101159.41;4992188;28;20041;-77
2021/11/15 05:41:09;;;;;;;13.65;9.48;;;;;;;8.46;nan;101160.75;4992068;28;20034;-76
2021/11/15 05:43:34;;;;;;;15.48;9.93;;;;;;;8.54;nan;101159.31;4992109;28;20044;-76
2021/11/15 05:46:00;;;;;;;14.15;9.65;;;;;;;8.50;nan;101158.69;4991510;28;20035;-76
2021/11/15 05:48:25;;;;;;;15.75;11.32;;;;;;;8.53;nan;101157.59;4992133;28;20038;-76
2021/11/15 05:50:51;;;;;;;18.55;12.30;;;;;;;8.43;nan;101160.16;4999198;28;20033;-76
2021/11/15 05:53:16;;;;;;;16.60;11.07;;;;;;;8.39;nan;101167.44;4991647;28;20472;-77
2021/11/15 05:55:43;;;;;;;15.27;10.27;;;;;;;8.43;nan;101163.63;4991450;28;20034;-77
2021/11/15 05:58:09;;;;;;;19.55;12.77;;;;;;;8.54;nan;101162.78;4992358;28;20385;-76
2021/11/15 06:00:36;;;;;;;16.25;11.25;;;;;;;8.51;nan;101165.66;4991240;28;20034;-77
2021/11/15 06:03:01;;;;;;;16.60;10.98;;;;;;;8.45;nan;101161.69;4991419;28;20042;-76
2021/11/15 06:05:27;;;;;;;15.45;10.15;;;;;;;8.47;nan;101162.41;4990543;28;20554;-76
2021/11/15 06:07:54;;;;;;;16.63;10.95;;;;;;;8.56;nan;101167.94;4991638;28;20038;-76
2021/11/15 06:10:21;;;;;;;13.25;9.55;;;;;;;8.47;nan;101161.59;4991074;28;20026;-76
2021/11/15 06:12:47;;;;;;;20.27;12.55;;;;;;;8.53;nan;101165.50;4991746;28;20044;-76
2021/11/15 06:15:15;;;;;;;24.52;13.15;;;;;;;8.43;nan;101162.78;4991075;28;20384;-76
2021/11/15 06:17:41;;;;;;;18.92;10.70;;;;;;;8.33;nan;101170.56;5010704;28;20050;-76
2021/11/15 06:20:08;;;;;;;11.57;8.02;;;;;;;8.34;nan;101160.84;4992046;28;20529;-75
2021/11/15 06:22:34;;;;;;;11.63;8.05;;;;;;;8.48;nan;101166.72;4991980;28;20081;-76
2021/11/15 06:24:59;;;;;;;12.75;8.20;;;;;;;8.35;nan;101170.44;4990787;28;20422;-76
2021/11/15 06:27:25;;;;;;;13.38;8.15;;;;;;;8.44;nan;101170.56;4991143;28;20035;-76
2021/11/15 06:29:51;;;;;;;13.23;8.57;;;;;;;8.36;nan;101180.84;4991009;28;20034;-76
2021/11/15 06:32:16;;;;;;;13.95;8.07;;;;;;;8.49;nan;101180.75;4990855;28;20030;-75
2021/11/15 06:34:42;;;;;;;11.45;8.45;;;;;;;8.46;nan;101180.97;4989681;28;20041;-76
2021/11/15 06:37:07;;;;;;;12.23;7.85;;;;;;;8.50;nan;101190.31;4995931;28;20051;-76
2021/11/15 06:39:33;;;;;;;15.65;9.35;;;;;;;8.46;nan;101186.25;4985450;28;20041;-76
2021/11/15 06:41:59;;;;;;;16.00;9.55;;;;;;;8.34;nan;101184.56;4991548;28;20041;-76
2021/11/15 06:44:26;;;;;;;17.10;10.18;;;;;;;8.37;nan;101185.16;4990264;28;20126;-76
2021/11/15 06:46:52;;;;;;;13.15;9.25;;;;;;;8.43;nan;101189.97;4991721;28;20562;-76
2021/11/15 06:49:18;;;;;;;15.10;8.40;;;;;;;8.45;nan;101197.75;4991389;28;20129;-76
2021/11/15 06:51:44;;;;;;;15.02;8.70;;;;;;;8.39;nan;101195.56;4994348;28;20118;-76
2021/11/15 06:54:10;;;;;;;33.42;15.38;;;;;;;8.34;nan;101200.38;4990054;28;20169;-76
2021/11/15 06:56:36;;;;;;;17.33;10.02;;;;;;;8.37;nan;101202.78;4991201;28;20058;-76
2021/11/15 06:59:02;;;;;;;12.85;8.75;;;;;;;8.36;nan;101209.00;4991102;28;20085;-77
2021/11/15 07:01:28;;;;;;;13.43;9.75;;;;;;;8.37;nan;101208.88;4990526;28;20474;-77
2021/11/15 07:03:53;;;;;;;14.10;8.95;;;;;;;8.41;nan;101206.88;4990785;28;20061;-76
2021/11/15 07:06:19;;;;;;;11.82;7.80;;;;;;;8.48;nan;101213.31;4989956;28;20038;-76
2021/11/15 07:08:44;;;;;;;11.55;7.72;;;;;;;8.35;nan;101208.16;4990328;28;20181;-76
2021/11/15 07:11:09;;;;;;;13.00;8.30;;;;;;;8.44;nan;101215.38;4990430;28;20507;-76
2021/11/15 07:13:35;;;;;;;10.75;7.22;;;;;;;8.36;nan;101209.00;4990585;28;20117;-76
2021/11/15 07:16:00;;;;;;;10.90;7.53;;;;;;;8.38;nan;101207.91;4994842;28;20034;-76
2021/11/15 07:18:27;;;;;;;11.88;8.10;;;;;;;8.45;nan;101217.03;5010177;28;20436;-76
2021/11/15 07:20:54;;;;;;;12.35;8.38;;;;;;;8.54;nan;101222.56;4999443;28;20502;-76
2021/11/15 07:23:20;;;;;;;12.55;8.75;;;;;;;8.50;nan;101227.22;4989134;28;20050;-76
2021/11/15 07:25:45;;;;;;;11.80;8.05;;;;;;;8.44;nan;101222.47;4989225;28;20046;-76
2021/11/15 07:28:11;;;;;;;12.10;8.27;;;;;;;8.44;nan;101215.38;4988444;28;20030;-76
2021/11/15 07:30:36;;;;;;;12.10;8.50;;;;;;;8.41;nan;101218.22;4989321;28;20070;-77
2021/11/15 07:33:02;;;;;;;12.38;8.45;;;;;;;8.36;nan;101211.63;4989160;28;20031;-76
2021/11/15 07:35:28;;;;;;;11.00;7.65;;;;;;;8.50;nan;101216.69;4995454;28;20042;-77
2021/11/15 07:37:53;;;;;;;12.68;8.00;;;;;;;8.50;nan;101214.88;5002429;28;20038;-76
2021/11/15 07:40:19;;;;;;;12.07;8.20;;;;;;;8.54;nan;101225.19;4983348;28;20042;-77
2021/11/15 07:42:45;;;;;;;9.90;6.95;;;;;;;8.50;nan;101221.94;4988191;28;20046;-77
2021/11/15 07:45:11;;;;;;;13.10;7.97;;;;;;;8.55;nan;101224.22;4990963;28;20450;-77
2021/11/15 07:47:37;;;;;;;11.25;7.65;;;;;;;8.56;nan;101225.94;4990433;28;20403;-77
2021/11/15 07:50:05;;;;;;;11.48;7.97;;;;;;;8.50;nan;101225.41;4997500;28;20042;-77
2021/11/15 07:52:32;;;;;;;9.10;6.65;;;;;;;8.47;nan;101222.19;4988718;28;20031;-77
2021/11/15 07:54:57;;;;;;;10.27;6.80;;;;;;;8.49;nan;101223.75;4989875;28;20066;-77
2021/11/15 07:57:23;;;;;;;11.93;7.82;;;;;;;8.55;nan;101225.06;4989858;28;20043;-77
2021/11/15 07:59:48;;;;;;;11.15;7.40;;;;;;;8.62;nan;101226.25;4988913;28;20046;-76
2021/11/15 08:02:14;;;;;;;12.82;8.20;;;;;;;8.63;nan;101225.31;4988712;28;20030;-77
2021/11/15 08:04:41;;;;;;;11.88;7.82;;;;;;;8.56;nan;101225.94;4988649;28;20113;-77
2021/11/15 08:07:07;;;;;;;10.98;7.65;;;;;;;8.52;nan;101222.69;4988279;28;20579;-77
2021/11/15 08:09:32;;;;;;;11.85;7.00;;;;;;;8.52;nan;101224.47;4991135;28;20125;-74
2021/11/15 08:12:06;;;;;;;10.82;7.38;;;;;;;8.48;nan;101221.22;4989392;28;20030;-75
2021/11/15 08:14:34;;;;;;;13.15;8.30;;;;;;;8.42;nan;101219.94;4985102;28;20034;-74
2021/11/15 08:16:59;;;;;;;11.57;7.82;;;;;;;8.48;nan;101221.22;4987049;28;20034;-75
2021/11/15 08:19:25;;;;;;;11.43;7.97;;;;;;;8.50;nan;101214.03;4982943;28;20579;-74
2021/11/15 08:21:50;;;;;;;12.55;7.97;;;;;;;8.35;nan;101217.88;4980601;28;20053;-75
2021/11/15 08:24:20;;;;;;;10.75;7.65;;;;;;;8.43;nan;101223.41;4983796;28;20046;-75
2021/11/15 08:26:52;;;;;;;13.13;8.20;;;;;;;8.47;nan;101222.19;4984199;28;20045;-73
2021/11/15 08:29:19;;;;;;;13.43;8.00;;;;;;;8.50;nan;101222.78;4992171;28;20058;-74
2021/11/15 08:38:39;;;;;;;11.73;7.72;;;;;;;8.35;nan;101218.69;4970697;28;20057;-76
2021/11/15 08:41:06;;;;;;;13.23;8.35;;;;;;;8.49;nan;101221.13;4988348;28;20042;-74
2021/11/15 08:43:31;;;;;;;12.20;7.97;;;;;;;8.54;nan;101219.94;4986303;28;20042;-76
2021/11/15 08:45:56;;;;;;;13.00;7.28;;;;;;;8.49;nan;101217.66;4984993;28;20506;-76
2021/11/15 08:48:22;;;;;;;11.48;7.38;;;;;;;8.53;nan;101211.16;4986662;28;20125;-76
2021/11/15 08:50:48;;;;;;;12.25;7.15;;;;;;;8.43;nan;101210.22;4985744;28;20042;-75
2021/11/15 08:53:14;;;;;;;12.93;7.53;;;;;;;8.43;nan;101208.41;4986991;28;20042;-76
2021/11/15 08:55:39;;;;;;;12.40;7.55;;;;;;;8.41;nan;101218.22;4995394;28;20570;-76
2021/11/15 08:58:05;;;;;;;12.10;7.78;;;;;;;8.54;nan;101217.28;4991239;28;20125;-76
2021/11/15 09:00:31;;;;;;;15.15;8.93;;;;;;;8.55;nan;101221.59;4991514;28;20499;-76
2021/11/15 09:02:56;;;;;;;17.17;9.38;;;;;;;8.47;nan;101214.28;4989540;28;20148;-76
2021/11/15 09:05:22;;;;;;;27.45;12.70;;;;;;;8.50;nan;101201.69;4989918;28;20042;-76
2021/11/15 09:07:48;;;;;;;15.00;8.85;;;;;;;8.56;nan;101204.84;4990274;28;20042;-76
2021/11/15 09:10:15;;;;;;;19.90;10.70;;;;;;;8.59;nan;101212.50;4989747;28;20031;-76
2021/11/15 09:12:43;;;;;;;13.73;8.50;;;;;;;8.55;nan;101208.41;4991604;28;20513;-76
2021/11/15 09:15:11;;;;;;;13.43;8.40;;;;;;;8.64;nan;101213.78;4991239;28;20034;-77
2021/11/15 09:17:39;;;;;;;13.73;7.78;;;;;;;8.56;nan;101210.09;4989877;28;20034;-76
2021/11/15 09:20:09;;;;;;;11.55;7.38;;;;;;;8.62;nan;101217.50;4989970;28;20089;-76
2021/11/15 09:22:35;;;;;;;11.02;7.10;;;;;;;8.66;nan;101211.88;4990689;28;20073;-76
2021/11/15 09:25:01;;;;;;;11.07;7.38;;;;;;;8.62;nan;101214.88;4990747;28;20041;-76
2021/11/15 09:27:26;;;;;;;12.32;7.35;;;;;;;8.66;nan;101216.31;4990202;28;20407;-76
2021/11/15 09:29:53;;;;;;;12.68;8.30;;;;;;;8.67;nan;101218.81;4990849;28;20064;-76
2021/11/15 09:32:21;;;;;;;11.88;7.97;;;;;;;8.74;nan;101218.31;4990322;28;20407;-76
2021/11/15 09:34:47;;;;;;;11.73;7.30;;;;;;;8.65;nan;101230.44;4990832;28;20034;-76
2021/11/15 09:37:15;;;;;;;11.13;7.50;;;;;;;8.56;nan;101236.47;4989930;28;20046;-76
2021/11/15 09:39:44;;;;;;;12.32;7.93;;;;;;;8.51;nan;101231.56;4988744;28;20150;-77
2021/11/15 09:42:09;;;;;;;12.88;6.97;;;;;;;8.52;nan;101232.38;4991210;28;20062;-76
2021/11/15 09:44:35;;;;;;;11.23;7.20;;;;;;;8.58;nan;101221.34;4990759;28;20057;-77
2021/11/15 09:47:03;;;;;;;12.30;7.07;;;;;;;8.58;nan;101224.84;4989085;28;20034;-77
2021/11/15 09:49:28;;;;;;;11.05;6.68;;;;;;;8.56;nan;101224.13;4991820;28;20084;-76
2021/11/15 09:51:53;;;;;;;12.02;7.72;;;;;;;8.72;nan;101229.00;4989237;28;20038;-76
2021/11/15 09:54:21;;;;;;;10.15;7.18;;;;;;;8.58;nan;101229.25;4989260;28;20046;-76
2021/11/15 09:56:47;;;;;;;11.80;7.40;;;;;;;8.64;nan;101232.25;4991172;28;20434;-75
2021/11/15 09:59:13;;;;;;;12.80;7.90;;;;;;;8.62;nan;101228.88;4990350;28;20129;-75
2021/11/15 10:01:43;;;;;;;10.23;6.95;;;;;;;8.63;nan;101227.94;4989876;28;20117;-75
2021/11/15 10:04:11;;;;;;;13.17;7.10;;;;;;;8.70;nan;101233.56;4988252;28;20038;-75
2021/11/15 10:06:37;;;;;;;9.65;6.50;;;;;;;8.67;nan;101233.78;4988836;28;20046;-75
2021/11/15 10:09:03;;;;;;;12.45;7.03;;;;;;;8.64;nan;101229.59;4991013;28;20030;-75
2021/11/15 10:11:46;;;;;;;11.10;6.82;;;;;;;8.43;nan;101234.78;4989244;28;20060;-75
2021/11/15 10:14:14;;;;;;;9.15;6.07;;;;;;;8.57;nan;101232.84;4987269;28;20137;-75
2021/11/15 10:16:40;;;;;;;9.93;6.70;;;;;;;8.61;nan;101227.22;4988086;28;20045;-75
2021/11/15 10:19:08;;;;;;;12.88;6.78;;;;;;;8.67;nan;101233.78;4993213;28;20511;-75
2021/11/15 10:21:46;;;;;;;9.65;6.20;;;;;;;8.61;nan;101232.50;4990908;28;20045;-75
2021/11/15 10:24:21;;;;;;;9.65;6.13;;;;;;;8.63;nan;101225.31;4984464;28;20061;-75
2021/11/15 10:26:59;;;;;;;10.07;6.30;;;;;;;8.44;nan;101223.28;4989181;28;20045;-75
2021/11/15 10:29:33;;;;;;;9.65;5.85;;;;;;;8.50;nan;101224.59;5005504;28;20121;-74
2021/11/15 10:32:04;;;;;;;10.05;6.45;;;;;;;8.40;nan;101221.00;4988362;28;20034;-75
2021/11/15 10:34:34;;;;;;;8.05;5.75;;;;;;;8.53;nan;101231.41;4979172;28;20109;-75
2021/11/15 10:37:04;;;;;;;9.30;5.85;;;;;;;8.59;nan;101233.59;4992870;28;20042;-75
2021/11/15 10:39:41;;;;;;;9.23;5.22;;;;;;;8.59;nan;101229.13;4986759;28;20039;-75
2021/11/15 10:42:13;;;;;;;9.18;5.50;;;;;;;8.81;nan;101225.63;4988475;28;20100;-75
2021/11/15 10:44:57;;;;;;;9.13;5.25;;;;;;;8.67;nan;101232.00;4992955;28;20060;-75
2021/11/15 10:47:40;;;;;;;8.32;5.10;;;;;;;8.59;nan;101223.03;4987446;28;20038;-75
2021/11/15 10:53:10;;;;;;;15.05;6.80;;;;;;;8.53;nan;101231.41;4989565;28;20046;-74
2021/11/15 10:56:13;;;;;;;50.00;12.90;;;;;;;8.52;nan;101230.59;4989072;28;20062;-74
2021/11/15 10:58:44;;;;;;;15.43;6.43;;;;;;;8.61;nan;101229.84;4978638;28;20289;-75
2021/11/15 11:01:11;;;;;;;13.07;6.43;;;;;;;8.59;nan;101220.41;4987941;28;20038;-74
2021/11/15 11:03:37;;;;;;;12.50;5.85;;;;;;;8.60;nan;101214.16;4989288;28;20035;-75
2021/11/15 11:06:11;;;;;;;14.38;6.85;;;;;;;8.65;nan;101209.34;4986151;28;20242;-74
2021/11/15 11:08:41;;;;;;;11.60;6.90;;;;;;;8.67;nan;101207.44;4987968;28;20113;-75
2021/11/15 11:11:13;;;;;;;110.55;15.30;;;;;;;8.71;nan;101203.59;4988135;28;20447;-75
2021/11/15 11:14:02;;;;;;;14.77;8.13;;;;;;;8.70;nan;101209.84;4989361;28;20125;-75
2021/11/15 11:16:43;;;;;;;12.35;6.45;;;;;;;8.62;nan;101205.16;4987574;28;20522;-75
2021/11/15 11:19:32;;;;;;;13.75;6.47;;;;;;;8.59;nan;101192.22;4989101;28;20065;-74
2021/11/15 11:22:24;;;;;;;10.20;6.22;;;;;;;8.62;nan;101180.59;4988111;28;20061;-75
2021/11/15 11:24:59;;;;;;;9.45;6.15;;;;;;;8.69;nan;101179.97;4973229;28;20042;-74
2021/11/15 11:27:27;;;;;;;9.18;5.80;;;;;;;8.59;nan;101176.41;4988800;28;20452;-75
2021/11/15 11:29:53;;;;;;;11.15;6.38;;;;;;;8.61;nan;101181.56;4987711;28;20042;-75
2021/11/15 11:32:23;;;;;;;14.98;7.43;;;;;;;8.62;nan;101188.50;4987868;28;20384;-75
2021/11/15 11:34:50;;;;;;;11.80;6.70;;;;;;;8.58;nan;101187.94;4988295;28;20038;-75
2021/11/15 11:37:17;;;;;;;23.90;8.02;;;;;;;8.62;nan;101184.06;4995332;28;20093;-75
2021/11/15 11:39:44;;;;;;;11.13;6.78;;;;;;;8.59;nan;101178.22;4988937;28;20077;-75
2021/11/15 11:42:14;;;;;;;11.90;6.85;;;;;;;8.60;nan;101183.34;4987054;28;20046;-75
2021/11/15 11:44:41;;;;;;;12.88;7.13;;;;;;;8.47;nan;101186.13;4987855;28;20038;-75
2021/11/15 11:47:09;;;;;;;15.82;7.90;;;;;;;8.46;nan;101184.47;4987025;28;20034;-75
2021/11/15 11:49:36;;;;;;;21.15;7.55;;;;;;;8.53;nan;101181.34;4991840;28;20519;-76